BPN weather

Sultan Aji Muhamad Sulaiman Airport
Kotamadya Balikpapan, East Kalimantan, Indonesia

Public forecast

Using degrees Celsius for public forecast. Weather courtesy of forecast.io.

METAR (pilot weather report)

Retrieved 2019/03/26 15:30 UTC (25 minutes ago):

WALL 261530Z 34004KT 9000 SCT018 27/25 Q1013

TAF (pilot weather forecast)

Forecast is more than 12 hours old.

Retrieved 2019/03/24 00:00 UTC (3 days ago):

TAF WALL 242300Z 2500/2606 30005KT 9999 FEW020 BECMG 2506/2508 05006KT BECMG 2512/2514 FEW020CB SCT020